Nashville, TN (37201)

3:32 AM CST on February 13, 2016 (GMT -0600)
APRSWXNET | | Change Station
CLOSE
Current Station
Personal Weather Station
Location: Nashville, TN
Elevation: 551 ft
Nearby Weather Stations

Elev 551 ft 36.14 °N, 86.80 °W | Updated 23 minutes ago

Overcast
Overcast
26 °F
Feels Like 15 °F
N
13
Wind Variable Wind from NNW
Gusts 28.0 mph

Today
High -- | Low -- °F
--% Chance of Precip.
Yesterday
High -- | Low -- °F
Precip. -- in
Pressure 30.46 in
Visibility 10.0 miles
Clouds Overcast 3300 ft
Windchill 15 °F
Dew Point 14 °F
Humidity 61%
Rainfall in
Snow Depth Not available.
6:37 AM 5:25 PM
Waxing Crescent, 29% visible
METAR KBNA 130853Z 35007KT 10SM OVC033 M04/M11 A3045 RMK AO2 SLP315 T10391111 51017
Pressure 30.46 in
Visibility 10.0 miles
Clouds Overcast 3300 ft
Windchill 15 °F
Dew Point 14 °F
Humidity 61%
Rainfall in
Snow Depth Not available.
6:37 AM 5:25 PM
Waxing Crescent, 29% visible
METAR KBNA 130853Z 35007KT 10SM OVC033 M04/M11 A3045 RMK AO2 SLP315 T10391111 51017

10-Day Weather Forecast

Almanac

Astronomy

Feb. 13, 2016 Rise Set
Actual Time
Civil Twilight
Nautical Twilight
Astronomical Twilight
Moon
Length of Visible Light
Length of Day
Tomorrow will be .
, % of the Moon is Illuminated

Today's Extremes

State Highs State Lows

Community

WunderPhotos

Upload Photos

1,892,536 photos uploaded!

WunderBlog® & News

Nearby

Air Quality

  Air Quality AQ Index Pollutant
Not available.

Snow Depth

Station Depth Elevation

Earthquake Activity

City Distance Mag. Time & Date
Minimum magnitude displayed is 2.5.

Coastal Water Temperatures

Place Temperature

Stations

Nearby Weather Stations

Station Location Temp. Windchill Dew Point Humidity Wind Precip. Elev Updated Type
                   

Watches & Warnings

There are currently no watches in effect.